WetterOnline ( https://www.wetteronline.de )

Wetter aktuell Potsdam

Aktuelles Wetter: Potsdam (100m)

6-stündlich | Neueste Meldungen
Ortszeit Temperatur Wetter
Di, 22.06. 2:00 19.6° C wolkig
Mo, 21.06. 20:00 26.9° C fast wolkenlos
Mo, 21.06. 14:00 28.9° C wolkenlos
Mo, 21.06. 8:00 21.0° C wolkig
Mo, 21.06. 2:00 23.0° C bewölkt
So, 20.06. 20:00 29.0° C bewölkt
So, 20.06. 14:00 31.9° C leicht bewölkt
So, 20.06. 8:00 23.5° C wolkig
Ortszeit Temperatur Wetter
Di, 22.06. 2:30 19.5° C bewölkt
Di, 22.06. 2:20 19.5° C bewölkt
Di, 22.06. 2:10 19.5° C bewölkt
Di, 22.06. 2:00 19.6° C wolkig
Di, 22.06. 1:50 19.6° C wolkig
Di, 22.06. 1:40 19.6° C leicht bewölkt
Di, 22.06. 1:30 19.9° C wolkenlos
Di, 22.06. 1:00 20.2° C wolkenlos
Di, 22.06. 0:30 20.7° C wolkenlos
Di, 22.06. 0:00 21.3° C wolkenlos
Mo, 21.06. 23:30 21.0° C wolkenlos
Ortszeit Relative Feuchte Sichtweite
Di, 22.06. 2:00 82% 60 km
Mo, 21.06. 20:00 47% >70 km
Mo, 21.06. 14:00 47% 60 km
Mo, 21.06. 8:00 88% 35 km
Mo, 21.06. 2:00 67% 50 km
So, 20.06. 20:00 41% >70 km
So, 20.06. 14:00 39% 35 km
So, 20.06. 8:00 77% 28 km
Ortszeit Relative Feuchte Sichtweite
Di, 22.06. 2:30 83% 45 km
Di, 22.06. 2:20 83% -
Di, 22.06. 2:10 82% -
Di, 22.06. 2:00 82% 60 km
Di, 22.06. 1:50 82% -
Di, 22.06. 1:40 82% -
Di, 22.06. 1:30 82% 50 km
Di, 22.06. 1:00 83% 45 km
Di, 22.06. 0:30 78% 50 km
Di, 22.06. 0:00 70% 55 km
Mo, 21.06. 23:30 66% >70 km
Ortszeit Niederschlagsmenge Niederschlagsart
Di, 22.06. 2:00 0.0 l/m2 in 6 Std. -
Mo, 21.06. 20:00 0.1 l/m2 in 12 Std. Sprühregen
Mo, 21.06. 14:00 0.1 l/m2 in 6 Std. Regen
Mo, 21.06. 8:00 0.6 l/m2 in 12 Std. Regen
Mo, 21.06. 2:00 0.0 l/m2 in 6 Std. -
So, 20.06. 20:00 0.1 l/m2 in 12 Std. Regen
So, 20.06. 14:00 0.0 l/m2 in 6 Std. -
So, 20.06. 8:00 0.0 l/m2 in 12 Std. -
Ortszeit Niederschlagsmenge Niederschlagsart
Di, 22.06. 2:30 0.0 l/m2 in 1 Std. -
Di, 22.06. 2:20 keine Meldung -
Di, 22.06. 2:10 keine Meldung -
Di, 22.06. 2:00 0.0 l/m2 in 1 Std. -
Di, 22.06. 1:50 keine Meldung -
Di, 22.06. 1:40 keine Meldung -
Di, 22.06. 1:30 0.0 l/m2 in 1 Std. -
Di, 22.06. 1:00 0.0 l/m2 in 1 Std. -
Di, 22.06. 0:30 0.0 l/m2 in 1 Std. -
Di, 22.06. 0:00 0.0 l/m2 in 1 Std. -
Mo, 21.06. 23:30 0.0 l/m2 in 1 Std. -
Ortszeit Stärke Spitze Richtung
km/h Bft. km/h Grad Sektor
Di, 22.06. 2:00 19 3 35 280° W
Mo, 21.06. 20:00 14 3 43 260° W
Mo, 21.06. 14:00 19 3 35 250° W
Mo, 21.06. 8:00 11 2 54 230° SW
Mo, 21.06. 2:00 11 2 22 50° NO
So, 20.06. 20:00 9 2 35 230° SW
So, 20.06. 14:00 19 3 39 250° W
So, 20.06. 8:00 9 2 24 120° SO
Ortszeit Stärke Spitze Richtung
km/h Bft. km/h Grad Sektor
Di, 22.06. 2:30 17 3 31 290° W
Di, 22.06. 2:20 17 3 - 290° W
Di, 22.06. 2:10 19 3 - 290° W
Di, 22.06. 2:00 19 3 35 280° W
Di, 22.06. 1:50 19 3 - 280° W
Di, 22.06. 1:40 22 4 - 280° W
Di, 22.06. 1:30 18 3 36 280° W
Di, 22.06. 1:00 18 3 36 280° W
Di, 22.06. 0:30 18 3 36 280° W
Di, 22.06. 0:00 22 4 36 270° W
Mo, 21.06. 23:30 13 3 17 250° W
Ortszeit Untergrenze Bedeckung Gattung
total tief tief mittel hoch
Di, 22.06. 2:00 660 m 6/8 5/8 - - -
Mo, 21.06. 20:00 1500 m 1/8 1/8 - - -
Mo, 21.06. 14:00 - 0/8 0/8 - - -
Mo, 21.06. 8:00 2700 m 8/8 1/8 - - -
Mo, 21.06. 2:00 2400 m 8/8 5/8 - - -
So, 20.06. 20:00 4800 m 8/8 7/8 - - -
So, 20.06. 14:00 1800 m 5/8 2/8 - - -
So, 20.06. 8:00 9000 m 8/8 0/8 - - -
Ortszeit Bedeckungsgrad in Achtel und Wolkenuntergrenze
Di, 22.06. 2:30 7(690m) 8(9000m) 8(10500m)
Di, 22.06. 2:20 7(690m) 8(9000m) 8(10500m)
Di, 22.06. 2:10 7(690m) 8(9000m) 8(10500m)
Di, 22.06. 2:00 5(660m) 6(9000m) 8(10500m)
Di, 22.06. 1:50 5(660m) 6(9000m)
Di, 22.06. 1:40 2(660m) 4(9000m)
Di, 22.06. 1:30 keine Wolken
Di, 22.06. 1:00 keine Wolken
Di, 22.06. 0:30 keine Wolken
Di, 22.06. 0:00 keine Wolken
Mo, 21.06. 23:30 keine Wolken
Ortszeit Luftdruck NN (hPa) Tendenz (hPa in 3 Std.)
Di, 22.06. 2:00 1009 + 1,2
Mo, 21.06. 20:00 1007 + 0,8
Mo, 21.06. 14:00 1006 - 0,4
Mo, 21.06. 8:00 1006 - 1,9
Mo, 21.06. 2:00 1006 - 1,8
So, 20.06. 20:00 1007 - 0,5
So, 20.06. 14:00 1008 - 0,2
So, 20.06. 8:00 1009 - 1,0
Ortszeit Luftdruck NN (hPa) Tendenz (hPa in 3 Std.)
Di, 22.06. 2:30 1010 + 1,7
Di, 22.06. 2:20 1010 keine Meldung
Di, 22.06. 2:10 1009 keine Meldung
Di, 22.06. 2:00 1009 + 1,2
Di, 22.06. 1:50 1009 keine Meldung
Di, 22.06. 1:40 1009 keine Meldung
Di, 22.06. 1:30 1009 + 1,2
Di, 22.06. 1:00 1009 + 0,8
Di, 22.06. 0:30 1008 + 0,9
Di, 22.06. 0:00 1008 + 0,8
Mo, 21.06. 23:30 1008 + 0,5
Ortszeit Schneehöhe (cm)
Di, 22.06. 2:00 -
Mo, 21.06. 20:00 -
Mo, 21.06. 14:00 -
Mo, 21.06. 8:00 -
Mo, 21.06. 2:00 -
So, 20.06. 20:00 -
So, 20.06. 14:00 -
So, 20.06. 8:00 -
Ortszeit Schneehöhe (cm)
Di, 22.06. 2:30 -
Di, 22.06. 2:20 -
Di, 22.06. 2:10 -
Di, 22.06. 2:00 -
Di, 22.06. 1:50 -
Di, 22.06. 1:40 -
Di, 22.06. 1:30 -
Di, 22.06. 1:00 -
Di, 22.06. 0:30 -
Di, 22.06. 0:00 -
Mo, 21.06. 23:30 -
Link zu dieser Seite / Seite empfehlen

Das Wetter in ...